Time;durP1;ratioP1;P1;durP2;ratioP2;P2;SDS_P1;SDS_P2;PMS_P1;PMS_P2;Temp;Humidity;BMP_temperature;BMP_pressure;BME280_temperature;BME280_humidity;BME280_pressure;Samples;Min_cycle;Max_cycle;Signal;HPM_P1;HPM_P2
2021/06/18 00:02:02;;;;;;;9.45;7.95;;;18.60;99.90;;;;;;5093992;28;20027;-82
2021/06/18 00:04:27;;;;;;;10.43;8.40;;;18.60;99.90;;;;;;5094129;28;20032;-78
2021/06/18 00:06:53;;;;;;;14.45;8.43;;;18.60;99.90;;;;;;5094030;28;20020;-79
2021/06/18 00:09:18;;;;;;;8.70;7.55;;;18.60;99.90;;;;;;5093859;28;20031;-82
2021/06/18 00:11:44;;;;;;;12.35;8.00;;;18.60;99.90;;;;;;5094017;28;20432;-82
2021/06/18 00:14:10;;;;;;;10.13;8.35;;;18.60;99.90;;;;;;5092703;28;20039;-82
2021/06/18 00:16:35;;;;;;;10.65;8.25;;;18.70;99.90;;;;;;5093749;28;20047;-79
2021/06/18 00:19:02;;;;;;;8.63;7.72;;;18.60;99.90;;;;;;5092543;28;20027;-79
2021/06/18 00:21:28;;;;;;;10.65;8.30;;;18.70;99.90;;;;;;5093732;28;20441;-78
2021/06/18 00:23:54;;;;;;;10.80;8.40;;;18.70;99.90;;;;;;5090666;28;20031;-82
2021/06/18 00:26:20;;;;;;;12.48;8.60;;;18.60;99.90;;;;;;5093057;28;20032;-81
2021/06/18 00:28:45;;;;;;;12.43;8.40;;;18.60;99.90;;;;;;5092134;28;20059;-81
2021/06/18 00:31:11;;;;;;;10.38;7.95;;;18.60;99.90;;;;;;5093269;28;20061;-79
2021/06/18 00:33:37;;;;;;;11.05;8.45;;;18.60;99.90;;;;;;5093142;28;20036;-82
2021/06/18 00:36:03;;;;;;;10.63;8.93;;;18.60;99.90;;;;;;5093310;28;20386;-82
2021/06/18 00:38:29;;;;;;;13.88;8.10;;;18.60;99.90;;;;;;5092767;28;20405;-82
2021/06/18 00:40:54;;;;;;;8.05;7.18;;;18.70;99.90;;;;;;5093600;28;20017;-82
2021/06/18 00:43:20;;;;;;;12.30;6.65;;;18.70;99.90;;;;;;5092829;28;20032;-81
2021/06/18 00:45:46;;;;;;;10.55;7.35;;;18.60;99.90;;;;;;5093259;28;20035;-82
2021/06/18 00:48:13;;;;;;;7.70;6.82;;;18.70;99.90;;;;;;5091916;28;20099;-82
2021/06/18 00:50:40;;;;;;;12.60;7.30;;;18.60;99.90;;;;;;5093350;28;20070;-82
2021/06/18 00:53:06;;;;;;;10.65;6.82;;;18.70;99.90;;;;;;5093036;28;20028;-80
2021/06/18 00:55:33;;;;;;;12.63;7.20;;;18.70;99.90;;;;;;5093214;28;20020;-80
2021/06/18 00:57:59;;;;;;;14.60;7.40;;;18.70;99.90;;;;;;5093314;28;20032;-83
2021/06/18 01:00:25;;;;;;;8.10;7.05;;;18.80;99.90;;;;;;5093526;28;20016;-83
2021/06/18 01:02:51;;;;;;;9.98;7.15;;;18.70;99.90;;;;;;5093048;28;20089;-82
2021/06/18 01:05:19;;;;;;;7.70;6.80;;;18.80;99.90;;;;;;5092974;28;20020;-81
2021/06/18 01:07:57;;;;;;;11.25;7.55;;;18.80;99.90;;;;;;5093123;28;20077;-80
2021/06/18 01:10:32;;;;;;;11.95;7.95;;;18.70;99.90;;;;;;5091505;28;20058;-78
2021/06/18 01:13:16;;;;;;;8.82;7.68;;;18.70;99.90;;;;;;5092306;28;20028;-80
2021/06/18 01:16:00;;;;;;;13.23;8.85;;;18.70;99.90;;;;;;5089082;28;20030;-79
2021/06/18 01:18:50;;;;;;;11.07;8.52;;;18.70;99.90;;;;;;5090035;28;20066;-78
2021/06/18 01:21:24;;;;;;;15.02;8.63;;;18.70;99.90;;;;;;5091761;28;20390;-79
2021/06/18 01:24:16;;;;;;;10.43;6.53;;;18.80;99.90;;;;;;5090800;28;20027;-79
2021/06/18 01:27:05;;;;;;;8.85;6.93;;;18.70;99.90;;;;;;5072430;28;20524;-79
2021/06/18 01:29:49;;;;;;;13.38;7.85;;;18.70;99.90;;;;;;5092490;28;20038;-79
2021/06/18 01:32:20;;;;;;;10.55;6.93;;;18.70;99.90;;;;;;5092098;28;20115;-80
2021/06/18 01:34:48;;;;;;;3.50;3.17;;;18.70;99.90;;;;;;5092301;28;20398;-79
2021/06/18 01:37:20;;;;;;;4.45;2.60;;;18.50;99.90;;;;;;5092689;28;20368;-79
2021/06/18 01:39:48;;;;;;;5.60;2.67;;;18.40;99.90;;;;;;5091968;28;20475;-78
2021/06/18 01:42:15;;;;;;;4.47;3.17;;;18.40;99.90;;;;;;5091266;28;20023;-79
2021/06/18 01:44:42;;;;;;;5.40;3.20;;;18.50;99.90;;;;;;5090757;28;20430;-78
2021/06/18 01:47:09;;;;;;;6.35;3.05;;;18.40;99.90;;;;;;5090965;28;20024;-79
2021/06/18 01:49:41;;;;;;;8.38;3.33;;;18.40;99.90;;;;;;5095256;28;20024;-79
2021/06/18 01:52:09;;;;;;;7.30;3.08;;;18.40;99.90;;;;;;5096680;28;20020;-79
2021/06/18 01:54:37;;;;;;;13.93;3.30;;;18.40;99.90;;;;;;5096529;28;20154;-80
2021/06/18 01:57:05;;;;;;;20.27;4.45;;;18.40;99.90;;;;;;5096503;28;20065;-81
2021/06/18 01:59:34;;;;;;;21.08;4.20;;;18.40;99.90;;;;;;5096344;28;20107;-80
2021/06/18 02:02:03;;;;;;;24.58;3.90;;;18.40;99.90;;;;;;5096272;28;20028;-80
2021/06/18 02:04:30;;;;;;;21.40;3.67;;;18.30;99.90;;;;;;5096493;28;20024;-80
2021/06/18 02:06:56;;;;;;;10.73;3.20;;;18.30;99.90;;;;;;5096203;28;20020;-80
2021/06/18 02:09:25;;;;;;;5.47;2.88;;;18.30;99.90;;;;;;5096239;28;20030;-79
2021/06/18 02:11:51;;;;;;;13.10;2.65;;;18.30;99.90;;;;;;5096429;28;20036;-79
2021/06/18 02:14:19;;;;;;;15.00;2.67;;;18.30;99.90;;;;;;5093926;28;20055;-80
2021/06/18 02:16:49;;;;;;;15.82;2.80;;;18.30;99.90;;;;;;5095156;28;20055;-79
2021/06/18 02:19:16;;;;;;;10.93;2.70;;;18.30;99.90;;;;;;5095790;28;20024;-80
2021/06/18 02:21:44;;;;;;;10.80;2.45;;;18.30;99.90;;;;;;5096297;28;20494;-79
2021/06/18 02:24:11;;;;;;;17.70;2.97;;;18.20;99.90;;;;;;5094914;28;20391;-80
2021/06/18 02:26:38;;;;;;;7.40;2.58;;;18.20;99.90;;;;;;5096068;28;20017;-81
2021/06/18 02:29:06;;;;;;;10.98;3.20;;;18.20;99.90;;;;;;5094106;28;20028;-80
2021/06/18 02:31:34;;;;;;;12.20;3.05;;;18.20;99.90;;;;;;5095671;28;20045;-80
2021/06/18 02:34:00;;;;;;;15.25;3.25;;;18.20;99.90;;;;;;5095761;28;20394;-80
2021/06/18 02:36:26;;;;;;;12.20;3.55;;;18.20;99.90;;;;;;5094580;28;20034;-80
2021/06/18 02:38:51;;;;;;;16.60;4.25;;;18.20;99.90;;;;;;5094478;28;20035;-79
2021/06/18 02:41:18;;;;;;;15.57;4.25;;;18.20;99.90;;;;;;5095798;28;20386;-80
2021/06/18 02:43:43;;;;;;;15.15;4.22;;;18.20;99.90;;;;;;5095529;28;20069;-80
2021/06/18 02:46:18;;;;;;;17.27;5.30;;;18.20;99.90;;;;;;5095297;28;20052;-80
2021/06/18 02:48:48;;;;;;;23.13;5.75;;;18.20;99.90;;;;;;5094524;28;20024;-78
2021/06/18 02:51:30;;;;;;;21.65;6.53;;;18.20;99.90;;;;;;5094242;28;20025;-78
2021/06/18 02:54:27;;;;;;;28.52;7.78;;;18.30;99.90;;;;;;5095579;28;20051;-80
2021/06/18 02:56:59;;;;;;;25.13;7.90;;;18.20;99.90;;;;;;5095345;28;20020;-80
2021/06/18 02:59:34;;;;;;;26.17;7.07;;;18.20;99.90;;;;;;5095430;28;20024;-80
2021/06/18 03:02:01;;;;;;;28.20;6.78;;;18.30;99.90;;;;;;5094583;28;20099;-78
2021/06/18 03:04:31;;;;;;;25.95;7.38;;;18.30;99.90;;;;;;5095019;28;20107;-80
2021/06/18 03:07:10;;;;;;;27.05;7.18;;;18.30;99.90;;;;;;5093985;28;20039;-78
2021/06/18 03:09:48;;;;;;;29.85;7.22;;;18.30;99.90;;;;;;5095075;28;20039;-77
2021/06/18 03:12:16;;;;;;;20.42;6.53;;;18.30;99.90;;;;;;5095043;28;20077;-80
2021/06/18 03:14:44;;;;;;;20.75;6.13;;;18.30;99.90;;;;;;5094335;28;20031;-81
2021/06/18 03:17:16;;;;;;;13.30;3.70;;;18.30;99.90;;;;;;5093623;28;21068;-81
2021/06/18 03:19:48;;;;;;;5.93;2.00;;;18.20;99.90;;;;;;5094702;28;20024;-76
2021/06/18 03:22:16;;;;;;;12.93;1.95;;;18.20;99.90;;;;;;5095021;28;20099;-77
2021/06/18 03:24:45;;;;;;;8.48;1.83;;;18.10;99.90;;;;;;5094158;28;20126;-77
2021/06/18 03:27:12;;;;;;;14.32;1.92;;;18.10;99.90;;;;;;5094201;28;20020;-81
2021/06/18 03:29:38;;;;;;;8.50;2.00;;;18.10;99.90;;;;;;5094421;28;20397;-77
2021/06/18 03:32:06;;;;;;;6.03;1.73;;;18.10;99.90;;;;;;5092874;28;20498;-79
2021/06/18 03:34:32;;;;;;;4.78;1.70;;;18.10;99.90;;;;;;5094877;28;20027;-81
2021/06/18 03:37:00;;;;;;;4.28;2.00;;;18.00;99.90;;;;;;5094810;28;20039;-80
2021/06/18 03:39:27;;;;;;;8.63;2.28;;;18.00;99.90;;;;;;5094401;28;20019;-80
2021/06/18 03:41:52;;;;;;;7.38;2.20;;;18.10;99.90;;;;;;5094762;28;20027;-76
2021/06/18 03:44:20;;;;;;;8.70;2.45;;;18.00;99.90;;;;;;5093882;28;20020;-80
2021/06/18 03:46:47;;;;;;;5.85;2.63;;;18.10;99.90;;;;;;5093807;28;20379;-77
2021/06/18 03:49:13;;;;;;;7.47;2.80;;;18.10;99.90;;;;;;5093900;28;20478;-80
2021/06/18 03:51:39;;;;;;;7.78;2.70;;;18.10;99.90;;;;;;5094357;28;20020;-80
2021/06/18 03:54:06;;;;;;;8.52;3.05;;;18.00;99.90;;;;;;5094449;28;20028;-76
2021/06/18 03:56:33;;;;;;;11.55;3.33;;;18.00;99.90;;;;;;5092121;28;20025;-81
2021/06/18 03:59:00;;;;;;;11.32;3.72;;;18.10;99.90;;;;;;5092316;28;20398;-77
2021/06/18 04:01:29;;;;;;;9.25;3.72;;;18.10;99.90;;;;;;5092584;28;20474;-80
2021/06/18 04:03:59;;;;;;;8.52;3.95;;;18.20;99.90;;;;;;5094354;28;20497;-76
2021/06/18 04:06:27;;;;;;;10.77;3.75;;;18.10;99.90;;;;;;5094190;28;20061;-76
2021/06/18 04:08:55;;;;;;;13.57;4.00;;;18.20;99.90;;;;;;5092565;28;20414;-76
2021/06/18 04:11:20;;;;;;;20.67;3.70;;;18.20;99.90;;;;;;5093723;28;20078;-77
2021/06/18 04:13:47;;;;;;;8.10;3.40;;;18.20;99.90;;;;;;5090731;28;20507;-81
2021/06/18 04:16:13;;;;;;;5.80;3.28;;;18.20;99.90;;;;;;5093603;28;20016;-82
2021/06/18 04:18:45;;;;;;;7.65;5.35;;;18.30;99.90;;;;;;5092592;28;20031;-82
2021/06/18 04:21:18;;;;;;;11.80;5.53;;;18.30;99.90;;;;;;5093568;28;20028;-81
2021/06/18 04:23:44;;;;;;;14.27;6.75;;;18.30;99.90;;;;;;5091851;28;20056;-77
2021/06/18 04:26:09;;;;;;;11.77;6.80;;;18.30;99.90;;;;;;5092465;28;20097;-78
2021/06/18 04:28:37;;;;;;;9.32;7.38;;;18.40;99.90;;;;;;5093009;28;20028;-78
2021/06/18 04:31:05;;;;;;;9.23;6.15;;;18.20;99.90;;;;;;5093444;28;20386;-83
2021/06/18 04:33:31;;;;;;;10.80;5.03;;;18.20;99.90;;;;;;5093587;28;20498;-83
2021/06/18 04:35:57;;;;;;;10.13;3.58;;;18.20;99.90;;;;;;5094657;28;20490;-83
2021/06/18 04:38:22;;;;;;;5.68;2.65;;;18.00;99.90;;;;;;5093635;28;20020;-82
2021/06/18 04:40:50;;;;;;;16.75;2.72;;;18.00;99.90;;;;;;5094562;28;20140;-83
2021/06/18 04:43:16;;;;;;;4.68;2.30;;;17.90;99.90;;;;;;5093438;28;20028;-83
2021/06/18 04:45:42;;;;;;;11.23;2.88;;;17.90;99.90;;;;;;5095772;28;20119;-84
2021/06/18 04:48:07;;;;;;;9.65;2.53;;;17.90;99.90;;;;;;5093376;28;20036;-83
2021/06/18 04:50:33;;;;;;;8.93;2.85;;;18.00;99.90;;;;;;5093782;28;20156;-78
2021/06/18 04:53:00;;;;;;;9.00;2.38;;;18.00;99.90;;;;;;5093511;28;20024;-81
2021/06/18 04:55:26;;;;;;;7.18;2.80;;;18.00;99.90;;;;;;5093088;28;20111;-82
2021/06/18 04:57:52;;;;;;;5.43;2.75;;;17.90;99.90;;;;;;5093386;28;20069;-82
2021/06/18 05:00:23;;;;;;;7.25;2.60;;;17.90;99.90;;;;;;5083412;28;20028;-83
2021/06/18 05:02:49;;;;;;;3.13;2.25;;;17.90;99.90;;;;;;5093091;28;20114;-78
2021/06/18 05:05:14;;;;;;;4.93;2.40;;;17.90;99.90;;;;;;5092993;28;20158;-78
2021/06/18 05:07:40;;;;;;;9.07;2.90;;;17.90;99.90;;;;;;5092826;28;20028;-77
2021/06/18 05:10:07;;;;;;;6.45;2.13;;;17.80;99.90;;;;;;5092507;28;20067;-80
2021/06/18 05:12:33;;;;;;;4.45;1.80;;;17.80;99.90;;;;;;5091848;28;20494;-79
2021/06/18 05:14:58;;;;;;;4.78;2.10;;;17.80;99.90;;;;;;5092115;28;20161;-82
2021/06/18 05:17:24;;;;;;;7.13;2.40;;;17.80;99.90;;;;;;5091406;28;20021;-78
2021/06/18 05:19:50;;;;;;;7.00;2.00;;;17.80;99.90;;;;;;5091092;28;20016;-83
2021/06/18 05:22:15;;;;;;;4.82;1.90;;;17.80;99.90;;;;;;5092380;28;20486;-83
2021/06/18 05:24:41;;;;;;;12.45;2.17;;;17.80;99.90;;;;;;5092226;28;20032;-80
2021/06/18 05:27:07;;;;;;;4.95;2.00;;;17.80;99.90;;;;;;5090361;28;20019;-82
2021/06/18 05:29:35;;;;;;;10.27;2.42;;;17.70;99.90;;;;;;5091414;28;20024;-79
2021/06/18 05:32:01;;;;;;;7.95;1.80;;;17.80;99.90;;;;;;5091503;28;20058;-82
2021/06/18 05:34:27;;;;;;;7.00;1.88;;;17.80;99.90;;;;;;5091294;28;20044;-82
2021/06/18 05:36:52;;;;;;;8.13;2.25;;;17.80;99.90;;;;;;5092720;28;20059;-79
2021/06/18 05:39:18;;;;;;;12.70;2.75;;;17.90;99.90;;;;;;5091486;28;20034;-79
2021/06/18 05:41:44;;;;;;;7.38;2.17;;;17.90;99.90;;;;;;5094631;28;20376;-79
2021/06/18 05:44:10;;;;;;;12.85;2.00;;;17.90;99.90;;;;;;5093683;28;20093;-81
2021/06/18 05:46:35;;;;;;;5.72;1.73;;;17.90;99.90;;;;;;5092295;28;20057;-80
2021/06/18 05:49:02;;;;;;;13.75;1.95;;;17.90;99.90;;;;;;5088955;28;20467;-79
2021/06/18 05:51:27;;;;;;;8.02;1.55;;;17.90;99.90;;;;;;5092941;28;20039;-81
2021/06/18 05:53:53;;;;;;;9.00;2.20;;;18.00;99.90;;;;;;5095386;28;20482;-79
2021/06/18 05:56:20;;;;;;;9.05;1.85;;;18.00;99.90;;;;;;5092196;28;20031;-80
2021/06/18 05:58:46;;;;;;;11.40;1.88;;;18.10;99.90;;;;;;5103079;28;20016;-81
2021/06/18 06:01:11;;;;;;;4.22;1.23;;;18.20;99.90;;;;;;5108595;28;20109;-78
2021/06/18 06:03:37;;;;;;;2.30;0.98;;;18.10;99.90;;;;;;5100566;28;20043;-79
2021/06/18 06:06:03;;;;;;;6.07;1.10;;;18.10;99.90;;;;;;5092559;28;20024;-79
2021/06/18 06:08:31;;;;;;;8.27;1.00;;;18.00;99.90;;;;;;5100838;28;20023;-81
2021/06/18 06:10:57;;;;;;;4.20;1.08;;;18.10;99.90;;;;;;5097220;28;20020;-79
2021/06/18 06:13:22;;;;;;;3.53;1.20;;;18.10;99.90;;;;;;5093833;28;20031;-80
2021/06/18 06:15:49;;;;;;;2.40;0.82;;;18.20;99.90;;;;;;5092516;28;20028;-79
2021/06/18 06:18:15;;;;;;;4.72;0.90;;;18.10;99.90;;;;;;5096650;28;20031;-79
2021/06/18 06:20:41;;;;;;;1.92;1.08;;;18.10;99.90;;;;;;5094925;28;20076;-80
2021/06/18 06:23:08;;;;;;;4.78;0.98;;;18.00;99.90;;;;;;5091397;28;20116;-80
2021/06/18 06:25:33;;;;;;;1.25;0.85;;;18.00;99.90;;;;;;5089766;28;20572;-79
2021/06/18 06:27:59;;;;;;;3.35;1.67;;;17.90;99.90;;;;;;5092300;28;20115;-80
2021/06/18 06:30:25;;;;;;;4.28;1.33;;;17.90;99.90;;;;;;5087698;28;20055;-79
2021/06/18 06:32:50;;;;;;;4.32;1.80;;;17.90;99.90;;;;;;5093127;28;20043;-80
2021/06/18 06:35:16;;;;;;;10.10;2.28;;;17.90;99.90;;;;;;5090808;28;20360;-79
2021/06/18 06:37:42;;;;;;;8.80;2.15;;;17.90;99.90;;;;;;5096681;28;20035;-80
2021/06/18 06:40:10;;;;;;;3.53;1.27;;;17.90;99.90;;;;;;5102211;28;20028;-80
2021/06/18 06:42:35;;;;;;;3.25;0.90;;;17.90;99.90;;;;;;5093950;28;20027;-79
2021/06/18 06:45:01;;;;;;;7.35;1.30;;;17.80;99.90;;;;;;5098626;28;20023;-79
2021/06/18 06:47:27;;;;;;;2.90;1.10;;;17.80;99.90;;;;;;5091922;28;20090;-79
2021/06/18 06:49:53;;;;;;;4.97;1.08;;;17.80;99.90;;;;;;5094940;28;20074;-78
2021/06/18 06:52:19;;;;;;;2.13;1.20;;;17.70;99.90;;;;;;5093652;28;20077;-79
2021/06/18 06:54:45;;;;;;;1.85;1.20;;;17.70;99.90;;;;;;5099570;28;20521;-79
2021/06/18 06:57:11;;;;;;;3.28;1.40;;;17.70;99.90;;;;;;5095647;28;20048;-79
2021/06/18 06:59:37;;;;;;;1.50;1.25;;;17.70;99.90;;;;;;5090210;28;20032;-79
2021/06/18 07:02:03;;;;;;;5.28;1.40;;;17.70;99.90;;;;;;5092489;28;20073;-80
2021/06/18 07:04:29;;;;;;;3.28;1.50;;;17.70;99.90;;;;;;5094078;28;20122;-80
2021/06/18 07:06:55;;;;;;;4.95;1.75;;;17.80;99.90;;;;;;5094384;28;20020;-80
2021/06/18 07:09:21;;;;;;;6.55;1.45;;;17.80;99.90;;;;;;5095188;28;20057;-80
2021/06/18 07:11:46;;;;;;;6.13;1.58;;;17.90;99.90;;;;;;5093266;28;20422;-80
2021/06/18 07:14:12;;;;;;;8.07;1.60;;;18.00;99.90;;;;;;5097777;28;20028;-80
2021/06/18 07:16:38;;;;;;;6.70;1.90;;;18.00;99.90;;;;;;5097466;28;20048;-79
2021/06/18 07:19:03;;;;;;;8.50;1.70;;;18.10;99.90;;;;;;5098103;28;20031;-80
2021/06/18 07:21:29;;;;;;;9.30;1.80;;;18.20;99.90;;;;;;5092471;28;20027;-81
2021/06/18 07:23:55;;;;;;;13.95;2.72;;;18.30;99.90;;;;;;5092132;28;20036;-80
2021/06/18 07:26:21;;;;;;;11.55;2.30;;;18.20;99.90;;;;;;5091716;28;20027;-80
2021/06/18 07:28:46;;;;;;;9.32;2.35;;;18.20;99.90;;;;;;5094801;28;20085;-81
2021/06/18 07:31:12;;;;;;;16.10;2.90;;;18.10;99.90;;;;;;5096937;28;20043;-81
2021/06/18 07:33:38;;;;;;;8.65;2.42;;;18.20;99.90;;;;;;5095848;28;20486;-79
2021/06/18 07:36:04;;;;;;;5.78;2.13;;;18.30;99.90;;;;;;5092013;28;20031;-82
2021/06/18 07:38:30;;;;;;;9.65;3.30;;;18.40;99.90;;;;;;5092443;28;20025;-79
2021/06/18 07:40:55;;;;;;;11.95;3.47;;;18.40;99.90;;;;;;5092821;28;20081;-80
2021/06/18 07:43:21;;;;;;;14.05;3.47;;;18.40;99.90;;;;;;5095483;28;20032;-81
2021/06/18 07:45:47;;;;;;;11.93;3.00;;;18.40;99.90;;;;;;5092342;28;20027;-81
2021/06/18 07:48:12;;;;;;;14.70;3.60;;;18.40;99.90;;;;;;5097886;28;20024;-81
2021/06/18 07:50:40;;;;;;;10.48;4.07;;;18.40;99.90;;;;;;5096466;28;20058;-80
2021/06/18 07:53:06;;;;;;;15.00;4.38;;;18.40;99.90;;;;;;5088379;28;20027;-80
2021/06/18 07:55:32;;;;;;;12.60;3.75;;;18.50;99.90;;;;;;5092785;28;20032;-81
2021/06/18 07:57:58;;;;;;;13.82;3.38;;;18.60;99.90;;;;;;5097300;28;20028;-82
2021/06/18 08:00:24;;;;;;;15.30;3.30;;;18.70;99.90;;;;;;5095273;28;20036;-80
2021/06/18 08:02:50;;;;;;;5.53;2.28;;;18.90;99.90;;;;;;5091468;28;20035;-79
2021/06/18 08:05:17;;;;;;;8.75;3.42;;;18.90;99.90;;;;;;5093022;28;20056;-79
2021/06/18 08:07:44;;;;;;;11.55;3.00;;;18.80;99.90;;;;;;5088062;28;20032;-80
2021/06/18 08:10:13;;;;;;;8.43;2.60;;;18.90;99.90;;;;;;5095265;28;20042;-80
2021/06/18 08:12:39;;;;;;;8.10;2.83;;;19.00;99.90;;;;;;5091013;28;20043;-81
2021/06/18 08:15:06;;;;;;;12.63;3.13;;;18.90;99.90;;;;;;5086873;28;20028;-78
2021/06/18 08:17:32;;;;;;;7.32;3.00;;;18.80;99.90;;;;;;5089888;28;20028;-82
2021/06/18 08:19:58;;;;;;;12.23;2.88;;;18.80;99.90;;;;;;5088156;28;20039;-79
2021/06/18 08:22:24;;;;;;;9.10;3.42;;;18.90;99.90;;;;;;5086539;28;20028;-83
2021/06/18 08:24:49;;;;;;;11.57;2.92;;;18.80;99.90;;;;;;5086949;28;20017;-83
2021/06/18 08:27:15;;;;;;;9.32;3.22;;;18.80;99.90;;;;;;5086344;28;20028;-79
2021/06/18 08:29:41;;;;;;;15.98;3.83;;;18.70;99.90;;;;;;5080822;28;20019;-82
2021/06/18 08:32:07;;;;;;;8.95;3.65;;;18.80;99.90;;;;;;5090838;28;20455;-79
2021/06/18 08:34:33;;;;;;;7.72;3.38;;;19.00;99.90;;;;;;5089676;28;20832;-82
2021/06/18 08:36:59;;;;;;;12.73;3.47;;;18.90;99.90;;;;;;5091521;28;20034;-82
2021/06/18 08:39:25;;;;;;;9.95;3.25;;;18.80;99.90;;;;;;5090647;28;20023;-80
2021/06/18 08:41:51;;;;;;;17.77;3.28;;;18.70;99.90;;;;;;5089374;28;20036;-80
2021/06/18 08:44:18;;;;;;;7.35;2.97;;;18.80;99.90;;;;;;5089089;28;20020;-83
2021/06/18 08:46:44;;;;;;;8.25;2.85;;;18.80;99.90;;;;;;5091387;28;20032;-84
2021/06/18 08:49:12;;;;;;;12.25;3.35;;;18.80;99.90;;;;;;5087490;28;20016;-79
2021/06/18 08:51:38;;;;;;;11.93;3.88;;;18.80;99.90;;;;;;5092789;28;20398;-83
2021/06/18 08:54:04;;;;;;;17.83;3.75;;;18.80;99.90;;;;;;5091052;28;20016;-83
2021/06/18 08:56:30;;;;;;;12.55;4.13;;;18.80;99.90;;;;;;5091448;28;20035;-84
2021/06/18 08:58:56;;;;;;;16.65;3.40;;;18.80;99.90;;;;;;5088651;28;20016;-84
2021/06/18 09:01:21;;;;;;;10.32;3.45;;;18.80;99.90;;;;;;5084336;28;20248;-84
2021/06/18 09:03:48;;;;;;;11.05;3.75;;;18.90;99.90;;;;;;5088646;28;20024;-83
2021/06/18 09:06:31;;;;;;;11.55;3.83;;;19.00;99.90;;;;;;5089197;28;20036;-80
2021/06/18 09:09:15;;;;;;;10.80;4.03;;;19.10;99.90;;;;;;5085436;28;20028;-79
2021/06/18 09:11:46;;;;;;;12.73;3.63;;;19.40;99.90;;;;;;5088398;28;20392;-79
2021/06/18 09:14:22;;;;;;;17.27;4.40;;;19.50;99.90;;;;;;5088929;28;20551;-83
2021/06/18 09:17:09;;;;;;;9.50;4.03;;;19.70;99.90;;;;;;5089755;28;20040;-79
2021/06/18 09:19:58;;;;;;;17.20;4.05;;;19.60;99.90;;;;;;5088257;28;20024;-76
2021/06/18 09:22:34;;;;;;;15.07;3.97;;;19.30;99.90;;;;;;5084729;28;20088;-78
2021/06/18 09:25:10;;;;;;;7.15;3.15;;;19.40;99.90;;;;;;5086466;28;20016;-79
2021/06/18 09:27:49;;;;;;;14.10;3.60;;;19.50;99.90;;;;;;5086664;28;20078;-82
2021/06/18 09:30:22;;;;;;;6.25;2.72;;;19.70;99.90;;;;;;5085082;28;20425;-83
2021/06/18 09:33:01;;;;;;;8.13;3.05;;;19.70;99.90;;;;;;5087252;28;20048;-83
2021/06/18 09:35:29;;;;;;;11.23;2.78;;;19.90;99.90;;;;;;5076025;28;20036;-83
2021/06/18 09:37:57;;;;;;;9.60;3.10;;;20.00;99.90;;;;;;5089330;28;20035;-78
2021/06/18 09:40:24;;;;;;;7.97;3.03;;;20.10;99.90;;;;;;5088793;28;20008;-80
2021/06/18 09:42:57;;;;;;;12.38;3.17;;;20.60;99.90;;;;;;5087345;28;20028;-83
2021/06/18 09:45:30;;;;;;;7.13;3.00;;;22.90;99.90;;;;;;5088782;28;20419;-81
2021/06/18 09:48:20;;;;;;;10.57;2.65;;;22.60;99.90;;;;;;5087638;28;20032;-83
2021/06/18 09:50:57;;;;;;;13.80;2.72;;;21.30;99.90;;;;;;5087838;28;20043;-79
2021/06/18 09:53:28;;;;;;;9.50;2.80;;;20.40;99.90;;;;;;5088930;28;20029;-84
2021/06/18 09:56:00;;;;;;;8.15;2.72;;;20.40;99.90;;;;;;5087208;28;20541;-83
2021/06/18 09:58:52;;;;;;;6.82;3.00;;;20.30;99.90;;;;;;5087828;28;20168;-79
2021/06/18 10:01:19;;;;;;;6.32;2.65;;;20.40;99.90;;;;;;5079049;28;20540;-77
2021/06/18 10:04:03;;;;;;;9.18;2.97;;;20.40;99.90;;;;;;5089523;28;20036;-83
2021/06/18 10:06:31;;;;;;;7.40;2.80;;;20.30;99.90;;;;;;5088195;28;20036;-82
2021/06/18 10:08:58;;;;;;;5.55;2.63;;;20.20;99.90;;;;;;5085290;28;20036;-83
2021/06/18 10:11:24;;;;;;;7.30;3.22;;;20.30;99.90;;;;;;5089267;28;20039;-79
2021/06/18 10:13:52;;;;;;;9.27;3.13;;;20.40;99.90;;;;;;5091892;28;20039;-84
2021/06/18 10:16:20;;;;;;;11.27;2.97;;;20.50;99.90;;;;;;5092140;28;20023;-79
2021/06/18 10:18:47;;;;;;;11.13;3.28;;;20.60;99.90;;;;;;5084122;28;20039;-83
2021/06/18 10:21:12;;;;;;;9.00;3.22;;;20.60;99.90;;;;;;5091738;28;20020;-82
2021/06/18 10:23:41;;;;;;;14.23;3.30;;;20.80;99.90;;;;;;5090507;28;20425;-83
2021/06/18 10:26:12;;;;;;;11.55;3.20;;;20.60;99.90;;;;;;5094708;28;20020;-78
2021/06/18 10:28:37;;;;;;;8.68;3.20;;;20.50;99.90;;;;;;5092713;28;20040;-83
2021/06/18 10:31:07;;;;;;;10.55;3.20;;;20.30;99.90;;;;;;5091803;28;20097;-83
2021/06/18 10:33:38;;;;;;;10.25;3.38;;;20.20;99.90;;;;;;5093821;28;20052;-83
2021/06/18 10:36:10;;;;;;;14.02;4.70;;;20.40;99.90;;;;;;5089788;28;20154;-83
2021/06/18 10:38:44;;;;;;;12.93;3.43;;;20.20;99.90;;;;;;5093764;28;20020;-77
2021/06/18 10:41:12;;;;;;;12.73;3.58;;;20.20;99.90;;;;;;5094620;28;20077;-77
2021/06/18 10:43:45;;;;;;;9.80;3.10;;;20.20;99.90;;;;;;5093489;28;20027;-77
2021/06/18 10:46:19;;;;;;;13.95;3.33;;;20.00;99.90;;;;;;5085632;28;20043;-76
2021/06/18 10:48:44;;;;;;;12.38;3.45;;;20.00;99.90;;;;;;5091642;28;20111;-77
2021/06/18 10:51:33;;;;;;;11.52;3.45;;;19.90;99.90;;;;;;5091437;28;20111;-83
2021/06/18 10:54:11;;;;;;;10.77;3.80;;;19.90;99.90;;;;;;5091741;28;20132;-76
2021/06/18 10:56:46;;;;;;;12.70;3.28;;;20.00;99.90;;;;;;5090103;28;20034;-77
2021/06/18 10:59:13;;;;;;;16.25;3.20;;;20.10;99.90;;;;;;5091675;28;20024;-74
2021/06/18 11:01:40;;;;;;;9.13;3.05;;;20.00;99.90;;;;;;5091669;28;20441;-82
2021/06/18 11:04:07;;;;;;;9.27;2.97;;;19.90;99.90;;;;;;5091847;28;20031;-83
2021/06/18 11:06:45;;;;;;;7.50;3.50;;;20.10;99.90;;;;;;5093449;28;20036;-83
2021/06/18 11:09:39;;;;;;;10.43;2.97;;;20.10;99.90;;;;;;5090477;28;20098;-77
2021/06/18 11:12:23;;;;;;;12.10;3.10;;;20.10;99.90;;;;;;5093052;28;20027;-82
2021/06/18 11:14:52;;;;;;;14.68;3.80;;;20.30;99.90;;;;;;5087531;28;20517;-82
2021/06/18 11:17:36;;;;;;;14.70;3.45;;;20.30;99.90;;;;;;5085139;28;20016;-77
2021/06/18 11:20:14;;;;;;;9.90;3.38;;;20.40;99.90;;;;;;5089517;28;20016;-83
2021/06/18 11:23:05;;;;;;;14.40;3.20;;;20.60;99.90;;;;;;5087293;28;20021;-77
2021/06/18 11:25:37;;;;;;;11.50;3.40;;;20.60;99.90;;;;;;5091478;28;20070;-82
2021/06/18 11:28:22;;;;;;;14.30;3.27;;;20.50;99.90;;;;;;5091113;28;20489;-84
2021/06/18 11:31:21;;;;;;;10.32;2.75;;;20.80;99.90;;;;;;5090539;28;20054;-81
2021/06/18 11:33:54;;;;;;;11.90;3.38;;;20.90;99.90;;;;;;5090008;28;20097;-75
2021/06/18 11:36:24;;;;;;;12.63;3.38;;;20.90;99.90;;;;;;5093357;28;20028;-81
2021/06/18 11:38:58;;;;;;;20.05;3.42;;;21.00;99.90;;;;;;5090917;28;20032;-83
2021/06/18 11:41:29;;;;;;;12.80;3.65;;;20.90;99.90;;;;;;5092197;28;20149;-78
2021/06/18 11:43:57;;;;;;;11.85;3.38;;;20.80;99.90;;;;;;5084034;28;20032;-81
2021/06/18 11:46:25;;;;;;;15.85;3.63;;;20.80;99.90;;;;;;5086772;28;20037;-82
2021/06/18 11:48:52;;;;;;;8.95;2.70;;;20.90;99.90;;;;;;5088119;28;20486;-75
2021/06/18 11:51:22;;;;;;;10.80;2.75;;;21.20;99.90;;;;;;5091044;28;20035;-78
2021/06/18 11:53:48;;;;;;;8.25;2.72;;;21.50;99.90;;;;;;5090514;28;20077;-82
2021/06/18 11:56:14;;;;;;;14.00;3.00;;;21.00;99.90;;;;;;5092035;28;20016;-76
2021/06/18 11:58:46;;;;;;;7.72;2.92;;;20.80;99.90;;;;;;5092157;28;20008;-81
2021/06/18 12:01:18;;;;;;;10.90;2.90;;;20.70;99.90;;;;;;5092659;28;20032;-81
2021/06/18 12:03:48;;;;;;;10.63;2.83;;;20.80;99.90;;;;;;5090248;28;20029;-78
2021/06/18 12:06:22;;;;;;;11.90;3.20;;;20.90;99.90;;;;;;5092164;28;20028;-76
2021/06/18 12:09:26;;;;;;;15.00;3.20;;;21.20;99.90;;;;;;5093444;28;20059;-76
2021/06/18 12:12:01;;;;;;;9.13;2.20;;;21.50;99.90;;;;;;5093239;28;20147;-74
2021/06/18 12:14:35;;;;;;;8.40;2.78;;;21.20;99.90;;;;;;5091159;28;20020;-80
2021/06/18 12:17:01;;;;;;;5.78;2.50;;;21.20;99.90;;;;;;5090639;28;20076;-80
2021/06/18 12:19:29;;;;;;;9.65;3.00;;;21.40;99.90;;;;;;5091602;28;20096;-76
2021/06/18 12:22:07;;;;;;;13.82;3.08;;;21.40;99.90;;;;;;5092231;28;20024;-78
2021/06/18 12:24:33;;;;;;;14.65;2.90;;;21.40;99.90;;;;;;5090783;28;20035;-76
2021/06/18 12:27:01;;;;;;;10.02;3.08;;;21.00;99.90;;;;;;5093102;28;20028;-80
2021/06/18 12:29:27;;;;;;;10.13;3.13;;;20.80;99.90;;;;;;5091533;28;20529;-79
2021/06/18 12:32:00;;;;;;;8.27;2.90;;;20.70;99.90;;;;;;5091206;28;20062;-81
2021/06/18 12:34:27;;;;;;;13.90;3.20;;;20.60;99.90;;;;;;5090107;28;20036;-75
2021/06/18 12:37:07;;;;;;;14.27;3.00;;;20.60;99.90;;;;;;5089656;28;20069;-81
2021/06/18 12:39:52;;;;;;;8.00;3.05;;;20.50;99.90;;;;;;5089893;28;20457;-76
2021/06/18 12:42:26;;;;;;;16.77;2.95;;;20.50;99.90;;;;;;5091914;28;20046;-80
2021/06/18 12:45:12;;;;;;;11.48;3.13;;;20.30;99.90;;;;;;5090684;28;20024;-82
2021/06/18 12:47:40;;;;;;;10.20;2.90;;;20.10;99.90;;;;;;5090822;28;20027;-76
2021/06/18 12:50:25;;;;;;;13.18;3.30;;;20.00;99.90;;;;;;5090552;28;20454;-80
2021/06/18 12:52:53;;;;;;;11.70;3.50;;;20.10;99.90;;;;;;5090776;28;20035;-79